sensor_id;sensor_type;location;lat;lon;timestamp;pressure;altitude;pressure_sealevel;temperature;humidity
72798;BME280;61084;55.816;37.036;2023-07-31T00:00:35;98752.38;;;15.24;63.08
72798;BME280;61084;55.816;37.036;2023-07-31T00:03:01;98749.88;;;15.22;63.04
72798;BME280;61084;55.816;37.036;2023-07-31T00:05:27;98756.25;;;15.20;63.07
72798;BME280;61084;55.816;37.036;2023-07-31T00:07:53;98763.56;;;15.16;63.25
72798;BME280;61084;55.816;37.036;2023-07-31T00:10:22;98754.94;;;15.14;63.41
72798;BME280;61084;55.816;37.036;2023-07-31T00:12:48;98757.84;;;15.11;63.37
72798;BME280;61084;55.816;37.036;2023-07-31T00:15:14;98744.00;;;15.07;63.71
72798;BME280;61084;55.816;37.036;2023-07-31T00:17:41;98745.09;;;15.05;63.61
72798;BME280;61084;55.816;37.036;2023-07-31T00:20:07;98748.84;;;15.02;63.20
72798;BME280;61084;55.816;37.036;2023-07-31T00:22:34;98744.53;;;15.01;63.51
72798;BME280;61084;55.816;37.036;2023-07-31T00:25:00;98743.81;;;14.99;63.45
72798;BME280;61084;55.816;37.036;2023-07-31T00:27:26;98752.69;;;14.98;63.46
72798;BME280;61084;55.816;37.036;2023-07-31T00:29:52;98754.50;;;14.98;63.36
72798;BME280;61084;55.816;37.036;2023-07-31T00:32:18;98747.81;;;14.94;63.27
72798;BME280;61084;55.816;37.036;2023-07-31T00:34:44;98754.88;;;14.93;63.41
72798;BME280;61084;55.816;37.036;2023-07-31T00:37:10;98754.97;;;14.92;63.52
72798;BME280;61084;55.816;37.036;2023-07-31T00:39:36;98745.75;;;14.86;63.65
72798;BME280;61084;55.816;37.036;2023-07-31T00:42:20;98742.28;;;14.86;63.55
72798;BME280;61084;55.816;37.036;2023-07-31T00:44:48;98746.00;;;14.83;63.46
72798;BME280;61084;55.816;37.036;2023-07-31T00:47:15;98747.13;;;14.81;63.61
72798;BME280;61084;55.816;37.036;2023-07-31T00:49:41;98741.22;;;14.77;63.71
72798;BME280;61084;55.816;37.036;2023-07-31T00:52:07;98744.84;;;14.76;63.77
72798;BME280;61084;55.816;37.036;2023-07-31T00:54:33;98743.13;;;14.75;63.93
72798;BME280;61084;55.816;37.036;2023-07-31T00:56:59;98738.94;;;14.73;63.91
72798;BME280;61084;55.816;37.036;2023-07-31T00:59:27;98739.06;;;14.71;63.86
72798;BME280;61084;55.816;37.036;2023-07-31T01:01:53;98734.72;;;14.70;63.88
72798;BME280;61084;55.816;37.036;2023-07-31T01:04:21;98730.44;;;14.69;63.96
72798;BME280;61084;55.816;37.036;2023-07-31T01:07:02;98736.78;;;14.67;64.32
72798;BME280;61084;55.816;37.036;2023-07-31T01:09:45;98731.75;;;14.64;64.17
72798;BME280;61084;55.816;37.036;2023-07-31T01:12:14;98731.88;;;14.62;64.07
72798;BME280;61084;55.816;37.036;2023-07-31T01:14:51;98732.13;;;14.59;64.24
72798;BME280;61084;55.816;37.036;2023-07-31T01:17:17;98730.56;;;14.57;63.99
72798;BME280;61084;55.816;37.036;2023-07-31T01:19:43;98734.31;;;14.54;64.46
72798;BME280;61084;55.816;37.036;2023-07-31T01:28:19;98733.81;;;14.49;65.34
72798;BME280;61084;55.816;37.036;2023-07-31T01:30:48;98737.66;;;14.45;64.81
72798;BME280;61084;55.816;37.036;2023-07-31T01:33:16;98736.94;;;14.43;64.66
72798;BME280;61084;55.816;37.036;2023-07-31T01:35:44;98739.72;;;14.42;64.69
72798;BME280;61084;55.816;37.036;2023-07-31T01:38:11;98738.88;;;14.41;64.63
72798;BME280;61084;55.816;37.036;2023-07-31T01:40:41;98741.66;;;14.40;64.65
72798;BME280;61084;55.816;37.036;2023-07-31T01:43:09;98739.00;;;14.40;64.52
72798;BME280;61084;55.816;37.036;2023-07-31T01:45:35;98737.31;;;14.39;64.39
72798;BME280;61084;55.816;37.036;2023-07-31T01:48:01;98736.72;;;14.35;64.58
72798;BME280;61084;55.816;37.036;2023-07-31T01:50:27;98739.38;;;14.35;64.66
72798;BME280;61084;55.816;37.036;2023-07-31T01:52:53;98742.09;;;14.33;64.69
72798;BME280;61084;55.816;37.036;2023-07-31T01:55:19;98743.94;;;14.33;64.79
72798;BME280;61084;55.816;37.036;2023-07-31T01:57:46;98744.03;;;14.31;64.83
72798;BME280;61084;55.816;37.036;2023-07-31T02:00:12;98753.66;;;14.32;64.66
72798;BME280;61084;55.816;37.036;2023-07-31T02:02:40;98741.38;;;14.31;64.55
72798;BME280;61084;55.816;37.036;2023-07-31T02:05:06;98740.56;;;14.31;64.61
72798;BME280;61084;55.816;37.036;2023-07-31T02:07:32;98736.22;;;14.30;64.61
72798;BME280;61084;55.816;37.036;2023-07-31T02:09:58;98739.81;;;14.29;64.61
72798;BME280;61084;55.816;37.036;2023-07-31T02:12:24;98732.84;;;14.28;64.90
72798;BME280;61084;55.816;37.036;2023-07-31T02:14:50;98737.19;;;14.29;64.70
72798;BME280;61084;55.816;37.036;2023-07-31T02:17:16;98738.88;;;14.30;64.86
72798;BME280;61084;55.816;37.036;2023-07-31T02:20:02;98745.09;;;14.29;65.05
72798;BME280;61084;55.816;37.036;2023-07-31T02:22:32;98741.50;;;14.30;64.80
72798;BME280;61084;55.816;37.036;2023-07-31T02:24:59;98743.06;;;14.32;65.00
72798;BME280;61084;55.816;37.036;2023-07-31T02:27:25;98742.09;;;14.33;65.15
72798;BME280;61084;55.816;37.036;2023-07-31T02:29:53;98749.06;;;14.34;65.29
72798;BME280;61084;55.816;37.036;2023-07-31T02:32:21;98748.09;;;14.35;65.31
72798;BME280;61084;55.816;37.036;2023-07-31T02:34:47;98752.31;;;14.38;65.22
72798;BME280;61084;55.816;37.036;2023-07-31T02:37:13;98752.94;;;14.42;65.38
72798;BME280;61084;55.816;37.036;2023-07-31T02:39:39;98747.50;;;14.43;65.48
72798;BME280;61084;55.816;37.036;2023-07-31T02:42:05;98748.22;;;14.45;65.74
72798;BME280;61084;55.816;37.036;2023-07-31T02:44:31;98750.50;;;14.50;65.56
72798;BME280;61084;55.816;37.036;2023-07-31T02:46:57;98741.25;;;14.55;65.64
72798;BME280;61084;55.816;37.036;2023-07-31T02:49:23;98733.81;;;14.60;66.01
72798;BME280;61084;55.816;37.036;2023-07-31T02:51:48;98734.28;;;14.65;66.02
72798;BME280;61084;55.816;37.036;2023-07-31T02:54:14;98731.38;;;14.68;65.80
72798;BME280;61084;55.816;37.036;2023-07-31T02:56:40;98732.09;;;14.70;66.16
72798;BME280;61084;55.816;37.036;2023-07-31T02:59:06;98734.50;;;14.73;65.98
72798;BME280;61084;55.816;37.036;2023-07-31T03:01:32;98734.25;;;14.76;66.43
72798;BME280;61084;55.816;37.036;2023-07-31T03:03:58;98736.41;;;14.82;66.44
72798;BME280;61084;55.816;37.036;2023-07-31T03:06:25;98731.34;;;14.90;66.48
72798;BME280;61084;55.816;37.036;2023-07-31T03:08:53;98734.31;;;14.97;66.50
72798;BME280;61084;55.816;37.036;2023-07-31T03:11:19;98737.06;;;15.06;66.68
72798;BME280;61084;55.816;37.036;2023-07-31T03:13:45;98734.63;;;15.15;66.72
72798;BME280;61084;55.816;37.036;2023-07-31T03:16:11;98739.16;;;15.24;66.69
72798;BME280;61084;55.816;37.036;2023-07-31T03:18:37;98734.91;;;15.32;66.48
72798;BME280;61084;55.816;37.036;2023-07-31T03:21:04;98729.00;;;15.40;66.49
72798;BME280;61084;55.816;37.036;2023-07-31T03:23:30;98732.72;;;15.48;66.82
72798;BME280;61084;55.816;37.036;2023-07-31T03:25:57;98740.72;;;15.58;66.88
72798;BME280;61084;55.816;37.036;2023-07-31T03:28:23;98741.75;;;15.66;66.57
72798;BME280;61084;55.816;37.036;2023-07-31T03:30:49;98741.09;;;15.74;66.53
72798;BME280;61084;55.816;37.036;2023-07-31T03:33:15;98744.66;;;15.84;66.64
72798;BME280;61084;55.816;37.036;2023-07-31T03:35:40;98745.66;;;15.93;66.57
72798;BME280;61084;55.816;37.036;2023-07-31T03:38:06;98738.75;;;16.01;66.36
72798;BME280;61084;55.816;37.036;2023-07-31T03:40:32;98741.59;;;16.09;66.70
72798;BME280;61084;55.816;37.036;2023-07-31T03:42:59;98742.34;;;16.21;67.45
72798;BME280;61084;55.816;37.036;2023-07-31T03:45:25;98742.25;;;16.32;66.78
72798;BME280;61084;55.816;37.036;2023-07-31T03:47:51;98744.81;;;16.43;67.14
72798;BME280;61084;55.816;37.036;2023-07-31T03:50:17;98730.78;;;16.52;66.36
72798;BME280;61084;55.816;37.036;2023-07-31T03:52:43;98732.50;;;16.63;66.47
72798;BME280;61084;55.816;37.036;2023-07-31T03:55:09;98735.03;;;16.74;65.96
72798;BME280;61084;55.816;37.036;2023-07-31T03:57:34;98731.69;;;16.81;66.13
72798;BME280;61084;55.816;37.036;2023-07-31T04:00:00;98735.22;;;16.91;65.85
72798;BME280;61084;55.816;37.036;2023-07-31T04:02:27;98731.59;;;17.02;65.91
72798;BME280;61084;55.816;37.036;2023-07-31T04:04:53;98734.13;;;17.13;65.97
72798;BME280;61084;55.816;37.036;2023-07-31T04:07:19;98736.50;;;17.25;66.06
72798;BME280;61084;55.816;37.036;2023-07-31T04:09:44;98740.81;;;17.36;65.63
72798;BME280;61084;55.816;37.036;2023-07-31T04:12:10;98745.84;;;17.49;65.45
72798;BME280;61084;55.816;37.036;2023-07-31T04:14:36;98742.13;;;17.61;65.25
72798;BME280;61084;55.816;37.036;2023-07-31T04:17:02;98746.44;;;17.71;65.09
72798;BME280;61084;55.816;37.036;2023-07-31T04:19:28;98743.47;;;17.84;65.14
72798;BME280;61084;55.816;37.036;2023-07-31T04:21:54;98755.19;;;17.91;64.45
72798;BME280;61084;55.816;37.036;2023-07-31T04:24:20;98754.50;;;17.98;64.31
72798;BME280;61084;55.816;37.036;2023-07-31T04:26:53;98756.28;;;18.07;64.21
72798;BME280;61084;55.816;37.036;2023-07-31T04:29:19;98758.63;;;18.20;64.05
72798;BME280;61084;55.816;37.036;2023-07-31T04:31:45;98755.66;;;18.33;63.72
72798;BME280;61084;55.816;37.036;2023-07-31T04:34:11;98767.78;;;18.45;63.28
72798;BME280;61084;55.816;37.036;2023-07-31T04:36:38;98764.78;;;18.57;63.31
72798;BME280;61084;55.816;37.036;2023-07-31T04:39:03;98753.84;;;18.70;62.97
72798;BME280;61084;55.816;37.036;2023-07-31T04:41:29;98761.31;;;18.84;63.41
72798;BME280;61084;55.816;37.036;2023-07-31T04:43:55;98756.78;;;18.94;63.15
72798;BME280;61084;55.816;37.036;2023-07-31T04:46:21;98762.59;;;19.07;62.93
72798;BME280;61084;55.816;37.036;2023-07-31T04:48:47;98760.69;;;19.17;62.46
72798;BME280;61084;55.816;37.036;2023-07-31T04:51:13;98761.00;;;19.32;62.23
72798;BME280;61084;55.816;37.036;2023-07-31T04:53:39;98757.97;;;19.44;62.08
72798;BME280;61084;55.816;37.036;2023-07-31T04:56:05;98763.25;;;19.54;61.59
72798;BME280;61084;55.816;37.036;2023-07-31T04:58:31;98762.00;;;19.66;61.39
72798;BME280;61084;55.816;37.036;2023-07-31T05:00:57;98765.81;;;19.81;61.08
72798;BME280;61084;55.816;37.036;2023-07-31T05:03:23;98769.88;;;19.93;60.53
72798;BME280;61084;55.816;37.036;2023-07-31T05:05:49;98764.81;;;20.08;60.06
72798;BME280;61084;55.816;37.036;2023-07-31T05:08:16;98759.09;;;20.20;59.97
72798;BME280;61084;55.816;37.036;2023-07-31T05:10:43;98765.84;;;20.33;59.29
72798;BME280;61084;55.816;37.036;2023-07-31T05:13:09;98763.13;;;20.50;59.26
72798;BME280;61084;55.816;37.036;2023-07-31T05:15:35;98762.69;;;20.63;59.16
72798;BME280;61084;55.816;37.036;2023-07-31T05:18:01;98759.72;;;20.74;58.84
72798;BME280;61084;55.816;37.036;2023-07-31T05:20:27;98762.59;;;20.80;57.16
72798;BME280;61084;55.816;37.036;2023-07-31T05:22:53;98762.59;;;20.88;58.02
72798;BME280;61084;55.816;37.036;2023-07-31T05:25:19;98761.69;;;21.06;57.58
72798;BME280;61084;55.816;37.036;2023-07-31T05:27:45;98761.38;;;21.17;57.37
72798;BME280;61084;55.816;37.036;2023-07-31T05:30:11;98756.59;;;21.28;57.18
72798;BME280;61084;55.816;37.036;2023-07-31T05:32:37;98757.94;;;21.40;56.65
72798;BME280;61084;55.816;37.036;2023-07-31T05:35:03;98760.28;;;21.51;56.72
72798;BME280;61084;55.816;37.036;2023-07-31T05:37:31;98759.81;;;21.64;55.98
72798;BME280;61084;55.816;37.036;2023-07-31T05:39:57;98748.75;;;21.75;56.20
72798;BME280;61084;55.816;37.036;2023-07-31T05:42:23;98754.97;;;21.92;56.25
72798;BME280;61084;55.816;37.036;2023-07-31T05:44:48;98764.31;;;22.04;56.09
72798;BME280;61084;55.816;37.036;2023-07-31T05:47:14;98763.78;;;22.16;55.96
72798;BME280;61084;55.816;37.036;2023-07-31T05:49:40;98764.28;;;22.28;55.74
72798;BME280;61084;55.816;37.036;2023-07-31T05:52:07;98762.94;;;22.40;55.63
72798;BME280;61084;55.816;37.036;2023-07-31T05:54:32;98763.38;;;22.51;53.84
72798;BME280;61084;55.816;37.036;2023-07-31T05:56:59;98764.06;;;22.62;54.65
72798;BME280;61084;55.816;37.036;2023-07-31T05:59:25;98762.84;;;22.72;54.42
72798;BME280;61084;55.816;37.036;2023-07-31T06:01:50;98762.09;;;22.86;54.70
72798;BME280;61084;55.816;37.036;2023-07-31T06:04:16;98760.88;;;22.97;53.55
72798;BME280;61084;55.816;37.036;2023-07-31T06:06:42;98763.53;;;23.05;53.57
72798;BME280;61084;55.816;37.036;2023-07-31T06:09:08;98762.00;;;23.10;53.40
72798;BME280;61084;55.816;37.036;2023-07-31T06:11:34;98763.28;;;23.22;52.83
72798;BME280;61084;55.816;37.036;2023-07-31T06:14:00;98761.03;;;23.34;52.95
72798;BME280;61084;55.816;37.036;2023-07-31T06:16:26;98749.75;;;23.47;52.60
72798;BME280;61084;55.816;37.036;2023-07-31T06:18:53;98757.72;;;23.55;52.18
72798;BME280;61084;55.816;37.036;2023-07-31T06:21:18;98755.28;;;23.68;51.34
72798;BME280;61084;55.816;37.036;2023-07-31T06:23:44;98752.34;;;23.77;52.02
72798;BME280;61084;55.816;37.036;2023-07-31T06:26:10;98762.94;;;23.93;51.70
72798;BME280;61084;55.816;37.036;2023-07-31T06:28:36;98756.78;;;24.08;51.53
72798;BME280;61084;55.816;37.036;2023-07-31T06:31:02;98757.72;;;24.15;50.90
72798;BME280;61084;55.816;37.036;2023-07-31T06:33:28;98759.31;;;24.24;50.51
72798;BME280;61084;55.816;37.036;2023-07-31T06:35:54;98758.53;;;24.38;50.67
72798;BME280;61084;55.816;37.036;2023-07-31T06:38:25;98759.25;;;24.46;50.17
72798;BME280;61084;55.816;37.036;2023-07-31T06:40:51;98767.66;;;24.58;50.43
72798;BME280;61084;55.816;37.036;2023-07-31T06:43:17;98765.38;;;24.69;48.56
72798;BME280;61084;55.816;37.036;2023-07-31T06:45:43;98770.50;;;24.79;49.11
72798;BME280;61084;55.816;37.036;2023-07-31T06:48:08;98770.91;;;24.97;50.00
72798;BME280;61084;55.816;37.036;2023-07-31T06:50:34;98769.59;;;25.08;49.41
72798;BME280;61084;55.816;37.036;2023-07-31T06:53:00;98771.78;;;25.19;49.48
72798;BME280;61084;55.816;37.036;2023-07-31T06:55:26;98765.28;;;25.28;48.25
72798;BME280;61084;55.816;37.036;2023-07-31T06:57:53;98761.66;;;25.35;48.27
72798;BME280;61084;55.816;37.036;2023-07-31T07:00:21;98762.94;;;25.39;47.87
72798;BME280;61084;55.816;37.036;2023-07-31T07:02:48;98763.41;;;25.43;47.49
72798;BME280;61084;55.816;37.036;2023-07-31T07:05:14;98758.81;;;25.58;48.16
72798;BME280;61084;55.816;37.036;2023-07-31T07:07:41;98759.94;;;25.64;47.17
72798;BME280;61084;55.816;37.036;2023-07-31T07:10:07;98764.97;;;25.73;45.91
72798;BME280;61084;55.816;37.036;2023-07-31T07:12:33;98766.06;;;25.79;45.98
72798;BME280;61084;55.816;37.036;2023-07-31T07:14:59;98770.41;;;25.80;46.42
72798;BME280;61084;55.816;37.036;2023-07-31T07:17:28;98770.47;;;25.86;46.55
72798;BME280;61084;55.816;37.036;2023-07-31T07:19:56;98764.56;;;25.97;46.10
72798;BME280;61084;55.816;37.036;2023-07-31T07:22:23;98771.03;;;26.03;46.32
72798;BME280;61084;55.816;37.036;2023-07-31T07:24:49;98770.47;;;26.07;46.69
72798;BME280;61084;55.816;37.036;2023-07-31T07:27:15;98765.16;;;26.14;45.61
72798;BME280;61084;55.816;37.036;2023-07-31T07:29:41;98774.72;;;26.23;43.94
72798;BME280;61084;55.816;37.036;2023-07-31T07:32:07;98768.59;;;26.29;43.71
72798;BME280;61084;55.816;37.036;2023-07-31T07:34:34;98763.84;;;26.31;45.56
72798;BME280;61084;55.816;37.036;2023-07-31T07:37:00;98762.84;;;26.39;42.91
72798;BME280;61084;55.816;37.036;2023-07-31T07:39:26;98764.16;;;26.49;45.17
72798;BME280;61084;55.816;37.036;2023-07-31T07:41:51;98765.31;;;26.68;45.63
72798;BME280;61084;55.816;37.036;2023-07-31T07:44:18;98766.00;;;26.76;45.46
72798;BME280;61084;55.816;37.036;2023-07-31T07:46:44;98765.63;;;26.79;44.24
72798;BME280;61084;55.816;37.036;2023-07-31T07:49:10;98762.53;;;26.89;44.74
72798;BME280;61084;55.816;37.036;2023-07-31T07:51:36;98766.75;;;27.05;45.34
72798;BME280;61084;55.816;37.036;2023-07-31T07:54:02;98770.94;;;27.14;43.15
72798;BME280;61084;55.816;37.036;2023-07-31T07:56:27;98770.75;;;27.22;44.67
72798;BME280;61084;55.816;37.036;2023-07-31T07:58:54;98761.22;;;27.19;42.84
72798;BME280;61084;55.816;37.036;2023-07-31T08:01:20;98765.56;;;27.14;39.65
72798;BME280;61084;55.816;37.036;2023-07-31T08:03:47;98766.16;;;27.09;43.09
72798;BME280;61084;55.816;37.036;2023-07-31T08:06:14;98764.03;;;26.98;43.06
72798;BME280;61084;55.816;37.036;2023-07-31T08:08:40;98771.91;;;27.00;43.28
72798;BME280;61084;55.816;37.036;2023-07-31T08:11:05;98770.09;;;27.07;40.95
72798;BME280;61084;55.816;37.036;2023-07-31T08:13:31;98772.00;;;27.19;41.24
72798;BME280;61084;55.816;37.036;2023-07-31T08:15:57;98773.06;;;27.25;39.92
72798;BME280;61084;55.816;37.036;2023-07-31T08:18:23;98772.25;;;27.31;41.17
72798;BME280;61084;55.816;37.036;2023-07-31T08:20:48;98777.06;;;27.35;40.79
72798;BME280;61084;55.816;37.036;2023-07-31T08:23:14;98775.00;;;27.44;40.99
72798;BME280;61084;55.816;37.036;2023-07-31T08:25:40;98787.28;;;27.53;42.49
72798;BME280;61084;55.816;37.036;2023-07-31T08:28:06;98777.50;;;27.52;40.83
72798;BME280;61084;55.816;37.036;2023-07-31T08:30:32;98775.25;;;27.55;41.37
72798;BME280;61084;55.816;37.036;2023-07-31T08:33:01;98792.25;;;27.62;41.59
72798;BME280;61084;55.816;37.036;2023-07-31T08:35:28;98780.66;;;27.55;41.32
72798;BME280;61084;55.816;37.036;2023-07-31T08:37:54;98784.78;;;27.58;41.22
72798;BME280;61084;55.816;37.036;2023-07-31T08:40:20;98776.91;;;27.56;39.01
72798;BME280;61084;55.816;37.036;2023-07-31T08:42:53;98778.34;;;27.46;40.63
72798;BME280;61084;55.816;37.036;2023-07-31T08:45:19;98782.88;;;27.39;39.34
72798;BME280;61084;55.816;37.036;2023-07-31T08:47:49;98778.97;;;27.48;39.78
72798;BME280;61084;55.816;37.036;2023-07-31T08:50:17;98779.19;;;27.53;38.32
72798;BME280;61084;55.816;37.036;2023-07-31T08:52:43;98788.31;;;27.58;40.60
72798;BME280;61084;55.816;37.036;2023-07-31T08:55:09;98774.03;;;27.71;41.30
72798;BME280;61084;55.816;37.036;2023-07-31T08:57:37;98782.56;;;27.94;41.16
72798;BME280;61084;55.816;37.036;2023-07-31T09:00:05;98785.94;;;28.03;41.02
72798;BME280;61084;55.816;37.036;2023-07-31T09:02:47;98782.00;;;28.12;39.29
72798;BME280;61084;55.816;37.036;2023-07-31T09:05:14;98779.28;;;28.12;40.26
72798;BME280;61084;55.816;37.036;2023-07-31T09:07:43;98789.25;;;28.24;40.03
72798;BME280;61084;55.816;37.036;2023-07-31T09:10:12;98786.09;;;28.34;40.60
72798;BME280;61084;55.816;37.036;2023-07-31T09:12:39;98774.28;;;28.48;39.62
72798;BME280;61084;55.816;37.036;2023-07-31T09:15:05;98783.38;;;28.54;40.17
72798;BME280;61084;55.816;37.036;2023-07-31T09:17:33;98780.69;;;28.54;39.87
72798;BME280;61084;55.816;37.036;2023-07-31T09:20:19;98787.75;;;28.55;39.17
72798;BME280;61084;55.816;37.036;2023-07-31T09:22:45;98782.16;;;28.63;39.86
72798;BME280;61084;55.816;37.036;2023-07-31T09:27:47;98784.84;;;28.56;38.77
72798;BME280;61084;55.816;37.036;2023-07-31T09:30:14;98777.78;;;28.55;39.55
72798;BME280;61084;55.816;37.036;2023-07-31T09:32:40;98782.59;;;28.66;40.16
72798;BME280;61084;55.816;37.036;2023-07-31T09:35:39;98776.72;;;28.76;37.94
72798;BME280;61084;55.816;37.036;2023-07-31T09:38:09;98778.13;;;28.91;40.48
72798;BME280;61084;55.816;37.036;2023-07-31T09:40:41;98779.78;;;28.99;39.08
72798;BME280;61084;55.816;37.036;2023-07-31T09:43:08;98780.78;;;29.04;39.83
72798;BME280;61084;55.816;37.036;2023-07-31T09:45:40;98779.19;;;28.97;39.37
72798;BME280;61084;55.816;37.036;2023-07-31T09:48:08;98786.00;;;28.99;40.04
72798;BME280;61084;55.816;37.036;2023-07-31T09:50:37;98783.72;;;29.03;39.57
72798;BME280;61084;55.816;37.036;2023-07-31T09:53:04;98781.81;;;29.10;39.31
72798;BME280;61084;55.816;37.036;2023-07-31T09:55:30;98781.19;;;29.08;39.59
72798;BME280;61084;55.816;37.036;2023-07-31T09:57:59;98783.69;;;29.16;39.19
72798;BME280;61084;55.816;37.036;2023-07-31T10:00:26;98771.03;;;29.17;39.35
72798;BME280;61084;55.816;37.036;2023-07-31T10:02:54;98777.41;;;29.29;39.55
72798;BME280;61084;55.816;37.036;2023-07-31T10:05:23;98774.91;;;29.27;38.88
72798;BME280;61084;55.816;37.036;2023-07-31T10:07:54;98773.50;;;29.12;38.79
72798;BME280;61084;55.816;37.036;2023-07-31T10:10:22;98782.44;;;29.12;38.59
72798;BME280;61084;55.816;37.036;2023-07-31T10:12:52;98778.91;;;29.18;38.67
72798;BME280;61084;55.816;37.036;2023-07-31T10:15:19;98781.31;;;29.33;38.87
72798;BME280;61084;55.816;37.036;2023-07-31T10:17:48;98783.75;;;29.41;37.93
72798;BME280;61084;55.816;37.036;2023-07-31T10:20:16;98785.81;;;29.45;38.24
72798;BME280;61084;55.816;37.036;2023-07-31T10:22:44;98781.59;;;29.56;39.15
72798;BME280;61084;55.816;37.036;2023-07-31T10:25:15;98783.91;;;29.52;38.13
72798;BME280;61084;55.816;37.036;2023-07-31T10:27:41;98781.50;;;29.38;37.79
72798;BME280;61084;55.816;37.036;2023-07-31T10:30:11;98783.81;;;29.34;38.11
72798;BME280;61084;55.816;37.036;2023-07-31T10:32:40;98788.59;;;29.32;38.16
72798;BME280;61084;55.816;37.036;2023-07-31T10:35:08;98785.91;;;29.32;38.05
72798;BME280;61084;55.816;37.036;2023-07-31T10:37:41;98779.69;;;29.32;37.29
72798;BME280;61084;55.816;37.036;2023-07-31T10:40:13;98774.00;;;29.40;38.12
72798;BME280;61084;55.816;37.036;2023-07-31T10:42:48;98781.03;;;29.47;37.54
72798;BME280;61084;55.816;37.036;2023-07-31T10:45:32;98787.00;;;29.56;37.97
72798;BME280;61084;55.816;37.036;2023-07-31T10:48:03;98785.94;;;29.63;36.54
72798;BME280;61084;55.816;37.036;2023-07-31T10:50:31;98789.94;;;29.54;37.83
72798;BME280;61084;55.816;37.036;2023-07-31T10:53:00;98787.09;;;29.43;38.43
72798;BME280;61084;55.816;37.036;2023-07-31T10:55:33;98791.94;;;29.28;37.88
72798;BME280;61084;55.816;37.036;2023-07-31T10:58:12;98798.22;;;29.22;38.33
72798;BME280;61084;55.816;37.036;2023-07-31T11:00:40;98798.22;;;29.15;38.67
72798;BME280;61084;55.816;37.036;2023-07-31T11:03:13;98803.03;;;29.06;38.48
72798;BME280;61084;55.816;37.036;2023-07-31T11:08:30;98799.81;;;28.72;39.04
72798;BME280;61084;55.816;37.036;2023-07-31T11:13:34;98802.75;;;28.57;39.51
72798;BME280;61084;55.816;37.036;2023-07-31T11:16:04;98800.44;;;28.41;39.45
72798;BME280;61084;55.816;37.036;2023-07-31T11:18:31;98795.28;;;28.33;39.92
72798;BME280;61084;55.816;37.036;2023-07-31T11:20:56;98800.28;;;28.29;39.32
72798;BME280;61084;55.816;37.036;2023-07-31T11:23:22;98789.88;;;28.26;40.20
72798;BME280;61084;55.816;37.036;2023-07-31T11:25:49;98788.41;;;28.30;40.71
72798;BME280;61084;55.816;37.036;2023-07-31T11:28:18;98788.41;;;28.30;40.67
72798;BME280;61084;55.816;37.036;2023-07-31T11:30:45;98789.66;;;28.34;39.97
72798;BME280;61084;55.816;37.036;2023-07-31T11:33:13;98788.19;;;28.45;40.55
72798;BME280;61084;55.816;37.036;2023-07-31T11:35:47;98783.59;;;28.72;41.20
72798;BME280;61084;55.816;37.036;2023-07-31T11:38:26;98782.69;;;28.97;40.48
72798;BME280;61084;55.816;37.036;2023-07-31T11:40:53;98779.75;;;29.05;40.05
72798;BME280;61084;55.816;37.036;2023-07-31T11:43:20;98782.50;;;28.99;39.73
72798;BME280;61084;55.816;37.036;2023-07-31T11:45:49;98778.97;;;28.92;39.38
72798;BME280;61084;55.816;37.036;2023-07-31T11:48:31;98783.34;;;28.86;38.31
72798;BME280;61084;55.816;37.036;2023-07-31T11:51:01;98779.44;;;28.76;39.34
72798;BME280;61084;55.816;37.036;2023-07-31T11:53:29;98781.31;;;28.69;39.19
72798;BME280;61084;55.816;37.036;2023-07-31T11:55:58;98790.88;;;28.65;39.51
72798;BME280;61084;55.816;37.036;2023-07-31T11:58:24;98791.31;;;28.62;40.11
72798;BME280;61084;55.816;37.036;2023-07-31T12:00:51;98789.00;;;28.72;40.15
72798;BME280;61084;55.816;37.036;2023-07-31T12:03:18;98784.59;;;28.90;40.38
72798;BME280;61084;55.816;37.036;2023-07-31T12:05:44;98787.88;;;29.05;40.32
72798;BME280;61084;55.816;37.036;2023-07-31T12:08:11;98791.22;;;29.01;39.56
72798;BME280;61084;55.816;37.036;2023-07-31T12:10:37;98790.41;;;28.94;39.58
72798;BME280;61084;55.816;37.036;2023-07-31T12:13:07;98784.38;;;28.92;39.55
72798;BME280;61084;55.816;37.036;2023-07-31T12:15:43;98791.25;;;28.88;39.13
72798;BME280;61084;55.816;37.036;2023-07-31T12:18:14;98791.66;;;28.85;39.75
72798;BME280;61084;55.816;37.036;2023-07-31T12:23:13;98795.84;;;28.74;39.67
72798;BME280;61084;55.816;37.036;2023-07-31T12:25:39;98791.06;;;28.76;39.71
72798;BME280;61084;55.816;37.036;2023-07-31T12:28:05;98791.69;;;28.72;38.85
72798;BME280;61084;55.816;37.036;2023-07-31T12:30:33;98801.06;;;28.63;39.30
72798;BME280;61084;55.816;37.036;2023-07-31T12:33:07;98797.34;;;28.57;39.60
72798;BME280;61084;55.816;37.036;2023-07-31T12:35:40;98794.41;;;28.46;39.61
72798;BME280;61084;55.816;37.036;2023-07-31T12:38:06;98801.69;;;28.38;38.64
72798;BME280;61084;55.816;37.036;2023-07-31T12:40:32;98808.78;;;28.26;39.62
72798;BME280;61084;55.816;37.036;2023-07-31T12:43:00;98814.38;;;28.12;40.29
72798;BME280;61084;55.816;37.036;2023-07-31T12:45:27;98814.94;;;27.88;40.40
72798;BME280;61084;55.816;37.036;2023-07-31T12:47:53;98810.75;;;27.72;41.12
72798;BME280;61084;55.816;37.036;2023-07-31T12:50:19;98815.91;;;27.54;41.52
72798;BME280;61084;55.816;37.036;2023-07-31T12:52:45;98813.78;;;27.43;41.33
72798;BME280;61084;55.816;37.036;2023-07-31T12:55:10;98819.16;;;27.36;42.20
72798;BME280;61084;55.816;37.036;2023-07-31T12:57:36;98824.50;;;27.30;42.22
72798;BME280;61084;55.816;37.036;2023-07-31T13:00:03;98822.53;;;27.11;42.41
72798;BME280;61084;55.816;37.036;2023-07-31T13:02:30;98828.94;;;27.03;42.23
72798;BME280;61084;55.816;37.036;2023-07-31T13:04:56;98819.53;;;26.92;42.24
72798;BME280;61084;55.816;37.036;2023-07-31T13:07:24;98828.88;;;26.90;42.34